createdAt,value
2018-05-13T00:01:21.529Z,84.30
2018-05-13T00:03:49.149Z,85.40
2018-05-13T00:06:16.770Z,85.30
2018-05-13T00:08:44.358Z,84.90
2018-05-13T00:11:11.977Z,84.90
2018-05-13T00:13:39.601Z,84.70
2018-05-13T00:16:07.229Z,84.70
2018-05-13T00:18:34.889Z,85.20
2018-05-13T00:21:02.528Z,85.10
2018-05-13T00:23:30.130Z,84.70
2018-05-13T00:25:57.784Z,85.40
2018-05-13T00:28:25.401Z,85.80
2018-05-13T00:30:53.020Z,86.50
2018-05-13T00:33:20.640Z,86.40
2018-05-13T00:35:48.240Z,85.80
2018-05-13T00:38:15.865Z,86.30
2018-05-13T00:40:43.469Z,86.80
2018-05-13T00:43:11.900Z,85.80
2018-05-13T00:45:39.520Z,85.80
2018-05-13T00:48:07.937Z,85.60
2018-05-13T00:50:35.584Z,85.60
2018-05-13T00:53:03.250Z,85.50
2018-05-13T00:55:30.881Z,85.80
2018-05-13T00:57:59.245Z,86.10
2018-05-13T01:00:26.878Z,86.10
2018-05-13T01:02:54.699Z,86.30
2018-05-13T01:05:22.310Z,86.90
2018-05-13T01:07:49.900Z,86.80
2018-05-13T01:10:17.808Z,87.20
2018-05-13T01:12:45.438Z,86.00
2018-05-13T01:15:13.844Z,85.50
2018-05-13T01:17:41.543Z,85.50
2018-05-13T01:20:09.174Z,85.60
2018-05-13T01:22:37.638Z,85.70
2018-05-13T01:25:05.888Z,85.10
2018-05-13T01:27:34.308Z,85.30
2018-05-13T01:30:01.897Z,85.20
2018-05-13T01:32:29.499Z,85.20
2018-05-13T01:34:57.175Z,85.70
2018-05-13T01:37:24.779Z,86.00
2018-05-13T01:39:52.442Z,86.50
2018-05-13T01:42:20.026Z,86.60
2018-05-13T01:44:48.456Z,86.70
2018-05-13T01:47:16.031Z,86.60
2018-05-13T01:49:43.666Z,86.80
2018-05-13T01:52:11.330Z,86.60
2018-05-13T01:54:39.703Z,85.90
2018-05-13T01:57:07.351Z,85.90
2018-05-13T01:59:34.962Z,86.30
2018-05-13T02:02:02.570Z,86.30
2018-05-13T02:04:31.180Z,85.90
2018-05-13T02:06:58.820Z,85.80
2018-05-13T02:09:26.421Z,85.80
2018-05-13T02:11:54.049Z,85.80
2018-05-13T02:14:21.736Z,85.90
2018-05-13T02:16:49.439Z,86.10
2018-05-13T02:19:17.257Z,86.10
2018-05-13T02:21:44.930Z,86.30
2018-05-13T02:24:12.540Z,86.10
2018-05-13T02:26:40.177Z,86.60
2018-05-13T02:29:08.678Z,86.20
2018-05-13T02:31:36.298Z,86.20
2018-05-13T02:34:03.904Z,86.50
2018-05-13T02:36:31.527Z,86.90
2018-05-13T02:38:59.891Z,87.10
2018-05-13T02:41:27.526Z,87.10
2018-05-13T02:43:55.207Z,87.10
2018-05-13T02:46:22.850Z,87.30
2018-05-13T02:48:50.438Z,86.80
2018-05-13T02:51:18.046Z,86.80
2018-05-13T02:53:45.679Z,86.70
2018-05-13T02:56:14.106Z,87.20
2018-05-13T02:58:41.756Z,87.20
2018-05-13T03:01:09.361Z,87.40
2018-05-13T03:03:36.951Z,87.30
2018-05-13T03:06:04.587Z,87.00
2018-05-13T03:08:32.995Z,86.50
2018-05-13T03:11:00.642Z,87.00
2018-05-13T03:13:28.234Z,86.90
2018-05-13T03:15:55.846Z,87.70
2018-05-13T03:18:24.274Z,88.20
2018-05-13T03:20:51.880Z,88.20
2018-05-13T03:23:19.541Z,87.20
2018-05-13T03:25:47.210Z,88.20
2018-05-13T03:28:14.876Z,88.30
2018-05-13T03:30:42.520Z,88.30
2018-05-13T03:33:10.130Z,88.30
2018-05-13T03:35:37.779Z,88.50
2018-05-13T03:38:05.411Z,87.90
2018-05-13T03:40:33.821Z,87.40
2018-05-13T03:43:01.482Z,87.20
2018-05-13T03:45:29.153Z,87.50
2018-05-13T03:47:56.772Z,87.60
2018-05-13T03:50:25.159Z,88.00
2018-05-13T03:52:53.511Z,87.60
2018-05-13T03:55:21.135Z,87.60
2018-05-13T03:57:48.795Z,86.50
2018-05-13T04:00:16.437Z,86.40
2018-05-13T04:02:44.070Z,88.30
2018-05-13T04:05:12.480Z,90.20
2018-05-13T04:10:52.453Z,90.40
2018-05-13T04:13:31.914Z,90.90
2018-05-13T04:15:59.545Z,90.40
2018-05-13T04:18:27.153Z,90.50
2018-05-13T04:20:54.769Z,90.40
2018-05-13T04:23:22.429Z,90.50
2018-05-13T04:25:50.066Z,90.60
2018-05-13T04:28:18.500Z,90.60
2018-05-13T04:30:46.098Z,90.60
2018-05-13T04:33:14.480Z,90.80
2018-05-13T04:35:42.827Z,90.60
2018-05-13T04:38:10.560Z,90.60
2018-05-13T04:40:38.187Z,90.60
2018-05-13T04:43:05.880Z,90.50
2018-05-13T04:45:33.591Z,90.60
2018-05-13T04:48:01.990Z,90.70
2018-05-13T04:50:29.630Z,90.60
2018-05-13T04:52:57.283Z,90.60
2018-05-13T04:55:24.880Z,90.50
2018-05-13T04:57:52.500Z,90.60
2018-05-13T05:00:20.131Z,90.60
2018-05-13T05:02:48.562Z,90.50
2018-05-13T05:05:16.931Z,90.20
2018-05-13T05:07:45.277Z,90.00
2018-05-13T05:10:12.990Z,90.00
2018-05-13T05:12:40.632Z,90.30
2018-05-13T05:15:09.039Z,90.20
2018-05-13T05:17:36.649Z,90.10
2018-05-13T05:20:04.333Z,90.20
2018-05-13T05:22:32.818Z,89.80
2018-05-13T05:25:01.261Z,89.30
2018-05-13T05:27:28.900Z,89.30
2018-05-13T05:29:56.525Z,89.50
2018-05-13T05:32:24.949Z,90.10
2018-05-13T05:34:52.538Z,90.10
2018-05-13T05:37:20.166Z,90.50
2018-05-13T05:39:47.795Z,90.40
2018-05-13T05:42:15.405Z,90.60
2018-05-13T05:44:43.076Z,90.80
2018-05-13T05:47:10.675Z,90.80
2018-05-13T05:49:38.288Z,90.70
2018-05-13T05:52:05.969Z,90.60
2018-05-13T05:54:33.666Z,90.50
2018-05-13T05:57:01.230Z,90.80
2018-05-13T05:59:28.827Z,90.90
2018-05-13T06:01:56.449Z,90.80
2018-05-13T06:04:24.068Z,90.90
2018-05-13T06:06:51.715Z,90.70
2018-05-13T06:09:19.331Z,91.00
2018-05-13T06:11:46.960Z,90.90
2018-05-13T06:14:15.320Z,90.80
2018-05-13T06:16:42.960Z,90.80
2018-05-13T06:19:10.560Z,90.90
2018-05-13T06:21:38.918Z,91.30
2018-05-13T06:24:06.538Z,91.00
2018-05-13T06:26:34.189Z,90.90
2018-05-13T06:29:01.861Z,91.00
2018-05-13T06:31:29.499Z,90.90
2018-05-13T06:33:57.166Z,91.20
2018-05-13T06:36:24.781Z,91.10
2018-05-13T06:38:52.386Z,90.00
2018-05-13T06:41:20.041Z,90.00
2018-05-13T06:43:47.651Z,88.70
2018-05-13T06:46:15.287Z,88.50
2018-05-13T06:48:42.910Z,89.00
2018-05-13T06:51:10.685Z,88.40
2018-05-13T06:53:44.210Z,86.70
2018-05-13T06:56:11.865Z,85.50
2018-05-13T06:58:39.512Z,85.50
2018-05-13T07:01:07.122Z,85.40
2018-05-13T07:03:36.617Z,85.60
2018-05-13T07:06:07.930Z,84.80
2018-05-13T07:08:40.088Z,85.60
2018-05-13T07:11:10.695Z,84.20
2018-05-13T07:13:41.309Z,82.10
2018-05-13T07:16:12.198Z,83.00
2018-05-13T07:18:39.850Z,83.50
2018-05-13T07:21:07.490Z,82.90
2018-05-13T07:23:35.961Z,79.70
2018-05-13T07:26:04.349Z,80.00
2018-05-13T07:28:34.980Z,79.90
2018-05-13T07:31:05.877Z,79.90
2018-05-13T07:33:36.615Z,79.30
2018-05-13T07:36:05.485Z,79.30
2018-05-13T07:38:35.080Z,79.70
2018-05-13T07:41:02.757Z,78.30
2018-05-13T07:43:31.281Z,77.90
2018-05-13T07:45:58.800Z,79.80
2018-05-13T07:48:26.411Z,79.40
2018-05-13T07:50:54.125Z,79.10
2018-05-13T07:53:21.743Z,78.20
2018-05-13T07:55:49.378Z,78.00
2018-05-13T07:58:17.740Z,77.90
2018-05-13T08:00:45.369Z,77.80
2018-05-13T08:03:13.036Z,78.20
2018-05-13T08:05:40.690Z,77.00
2018-05-13T08:08:08.328Z,76.60
2018-05-13T08:10:35.951Z,76.30
2018-05-13T08:13:04.437Z,77.80
2018-05-13T08:15:32.874Z,74.60
2018-05-13T08:18:00.490Z,74.60
2018-05-13T08:20:28.223Z,73.90
2018-05-13T08:22:55.802Z,73.80
2018-05-13T08:25:23.424Z,73.90
2018-05-13T08:27:51.079Z,74.80
2018-05-13T08:30:18.700Z,74.90
2018-05-13T08:32:46.335Z,73.10
2018-05-13T08:35:14.739Z,72.40
2018-05-13T08:37:43.661Z,72.30
2018-05-13T08:40:11.277Z,70.60
2018-05-13T08:42:39.733Z,73.70
2018-05-13T08:45:07.591Z,73.80
2018-05-13T08:47:35.240Z,73.50
2018-05-13T08:50:03.612Z,72.80
2018-05-13T08:52:31.283Z,71.90
2018-05-13T08:54:58.937Z,71.10
2018-05-13T08:57:26.636Z,70.00
2018-05-13T08:59:55.531Z,71.10
2018-05-13T09:02:23.929Z,71.40
2018-05-13T09:04:51.549Z,71.30
2018-05-13T09:07:19.130Z,68.80
2018-05-13T09:09:46.745Z,69.50
2018-05-13T09:12:14.335Z,70.20
2018-05-13T09:14:41.985Z,69.30
2018-05-13T09:17:09.630Z,70.00
2018-05-13T09:19:37.243Z,69.60
2018-05-13T09:24:33.836Z,71.40
2018-05-13T09:27:01.459Z,71.70
2018-05-13T09:29:29.117Z,70.60
2018-05-13T09:31:56.736Z,71.10
2018-05-13T09:34:24.356Z,69.10
2018-05-13T09:36:51.958Z,70.00
2018-05-13T09:39:19.550Z,69.30
2018-05-13T09:41:47.171Z,67.90
2018-05-13T09:44:14.769Z,68.70
2018-05-13T09:46:42.417Z,69.40
2018-05-13T09:49:10.039Z,68.90
2018-05-13T09:51:37.717Z,67.50
2018-05-13T09:54:05.340Z,69.90
2018-05-13T09:56:32.940Z,68.80
2018-05-13T09:59:00.587Z,67.60
2018-05-13T10:01:28.581Z,68.10
2018-05-13T10:03:57.045Z,67.00
2018-05-13T10:06:25.316Z,66.60
2018-05-13T10:08:53.162Z,66.90
2018-05-13T10:11:21.060Z,66.40
2018-05-13T10:13:50.442Z,64.80
2018-05-13T10:16:18.530Z,64.60
2018-05-13T10:18:48.130Z,64.80
2018-05-13T10:21:16.100Z,65.30
2018-05-13T10:23:45.331Z,67.10
2018-05-13T10:26:13.392Z,67.70
2018-05-13T10:28:41.314Z,64.00
2018-05-13T10:31:09.219Z,63.40
2018-05-13T10:33:37.028Z,61.40
2018-05-13T10:36:05.022Z,63.40
2018-05-13T10:38:33.728Z,60.90
2018-05-13T10:41:02.980Z,60.80
2018-05-13T10:43:32.091Z,60.70
2018-05-13T10:46:00.111Z,60.60
2018-05-13T10:48:28.010Z,59.70
2018-05-13T10:50:56.103Z,59.70
2018-05-13T10:53:24.065Z,57.80
2018-05-13T10:55:52.904Z,59.40
2018-05-13T10:58:20.859Z,57.50
2018-05-13T11:00:48.630Z,60.20
2018-05-13T11:03:17.411Z,56.60
2018-05-13T11:05:45.925Z,56.80
2018-05-13T11:08:13.835Z,56.80
2018-05-13T11:10:41.622Z,56.50
2018-05-13T11:13:09.481Z,56.70
2018-05-13T11:15:37.559Z,56.70
2018-05-13T11:18:06.202Z,58.20
2018-05-13T11:20:34.245Z,57.60
2018-05-13T11:23:03.520Z,57.60
2018-05-13T11:25:31.501Z,57.60
2018-05-13T11:27:59.429Z,56.30
2018-05-13T11:30:27.480Z,57.40
2018-05-13T11:32:55.405Z,54.60
2018-05-13T11:35:24.250Z,52.80
2018-05-13T11:37:53.038Z,51.80
2018-05-13T11:40:20.929Z,51.60
2018-05-13T11:42:49.530Z,50.70
2018-05-13T11:45:17.460Z,50.60
2018-05-13T11:47:45.263Z,50.60
2018-05-13T11:50:13.261Z,51.20
2018-05-13T11:52:42.362Z,51.00
2018-05-13T11:55:11.076Z,49.50
2018-05-13T11:57:39.042Z,49.40
2018-05-13T12:00:07.032Z,48.50
2018-05-13T12:02:35.561Z,48.50
2018-05-13T12:05:03.357Z,48.40
2018-05-13T12:07:33.261Z,46.60
2018-05-13T12:10:01.155Z,47.40
2018-05-13T12:12:28.935Z,46.60
2018-05-13T12:14:57.608Z,48.80
2018-05-13T12:17:26.256Z,47.20
2018-05-13T12:19:53.961Z,47.20
2018-05-13T12:22:22.548Z,47.20
2018-05-13T12:24:51.315Z,47.20
2018-05-13T12:27:19.865Z,45.50
2018-05-13T12:29:48.481Z,45.60
2018-05-13T12:32:16.308Z,46.10
2018-05-13T12:34:44.190Z,46.70
2018-05-13T12:37:12.341Z,44.60
2018-05-13T12:39:41.070Z,45.10
2018-05-13T12:42:09.140Z,44.90
2018-05-13T12:44:37.000Z,45.50
2018-05-13T12:47:05.635Z,45.50
2018-05-13T12:49:34.038Z,43.70
2018-05-13T12:52:03.668Z,43.00
2018-05-13T12:54:31.713Z,42.40
2018-05-13T12:56:59.547Z,43.90
2018-05-13T12:59:27.291Z,41.70
2018-05-13T13:01:56.207Z,43.10
2018-05-13T13:04:25.823Z,44.90
2018-05-13T13:06:53.485Z,44.90
2018-05-13T13:09:21.749Z,43.90
2018-05-13T13:11:49.997Z,44.60
2018-05-13T13:14:18.140Z,44.30
2018-05-13T13:16:47.501Z,42.90
2018-05-13T13:19:15.807Z,42.80
2018-05-13T13:21:44.161Z,44.00
2018-05-13T13:24:13.485Z,43.10
2018-05-13T13:26:42.880Z,43.10
2018-05-13T13:29:11.210Z,43.50
2018-05-13T13:31:39.908Z,43.80
2018-05-13T13:34:07.666Z,45.30
2018-05-13T13:36:36.963Z,45.50
2018-05-13T13:39:04.625Z,45.90
2018-05-13T13:41:33.110Z,47.50
2018-05-13T13:44:00.769Z,47.50
2018-05-13T13:46:28.440Z,47.10
2018-05-13T13:48:56.097Z,51.40
2018-05-13T13:51:23.725Z,51.50
2018-05-13T13:53:52.130Z,50.80
2018-05-13T13:56:19.760Z,50.70
2018-05-13T13:58:47.370Z,49.40
2018-05-13T14:01:14.984Z,49.30
2018-05-13T14:03:42.608Z,51.50
2018-05-13T14:06:10.276Z,53.90
2018-05-13T14:08:37.910Z,53.50
2018-05-13T14:11:05.594Z,54.90
2018-05-13T14:13:33.230Z,50.30
2018-05-13T14:16:00.840Z,50.00
2018-05-13T14:18:28.510Z,51.90
2018-05-13T14:20:56.131Z,52.10
2018-05-13T14:23:23.750Z,52.10
2018-05-13T14:25:52.190Z,52.00
2018-05-13T14:28:19.810Z,52.00
2018-05-13T14:30:47.503Z,52.70
2018-05-13T14:33:15.116Z,54.00
2018-05-13T14:35:42.738Z,55.80
2018-05-13T14:38:10.352Z,56.10
2018-05-13T14:40:37.982Z,58.20
2018-05-13T14:43:06.380Z,62.10
2018-05-13T14:45:34.025Z,62.10
2018-05-13T14:48:01.770Z,64.00
2018-05-13T14:50:29.451Z,65.60
2018-05-13T14:52:57.871Z,71.20
2018-05-13T14:55:25.473Z,71.10
2018-05-13T14:57:53.111Z,69.30
2018-05-13T15:00:20.984Z,70.60
2018-05-13T15:02:48.610Z,70.80
2018-05-13T15:05:16.220Z,70.70
2018-05-13T15:07:43.972Z,71.00
2018-05-13T15:10:11.591Z,71.30
2018-05-13T15:12:39.223Z,71.30
2018-05-13T15:15:07.603Z,72.60
2018-05-13T15:17:35.990Z,72.70
2018-05-13T15:20:03.665Z,72.60
2018-05-13T15:22:34.454Z,73.50
2018-05-13T15:25:02.992Z,64.50
2018-05-13T15:27:30.617Z,64.40
2018-05-13T15:29:59.132Z,69.90
2018-05-13T15:32:26.770Z,69.90
2018-05-13T15:34:54.390Z,69.90
2018-05-13T15:37:22.080Z,72.20
2018-05-13T15:39:50.118Z,70.60
2018-05-13T15:42:17.810Z,73.10
2018-05-13T15:44:46.225Z,73.10
2018-05-13T15:47:15.492Z,72.80
2018-05-13T15:49:43.150Z,72.80
2018-05-13T15:52:11.545Z,72.00
2018-05-13T15:54:39.856Z,72.00
2018-05-13T15:57:07.503Z,74.00
2018-05-13T15:59:36.281Z,73.20
2018-05-13T16:02:03.947Z,72.20
2018-05-13T16:04:31.617Z,73.70
2018-05-13T16:06:59.210Z,74.00
2018-05-13T16:09:26.864Z,73.60
2018-05-13T16:11:54.507Z,73.50
2018-05-13T16:14:22.130Z,74.00
2018-05-13T16:16:49.784Z,73.60
2018-05-13T16:19:17.415Z,74.60
2018-05-13T16:21:45.070Z,73.90
2018-05-13T16:24:12.716Z,72.80
2018-05-13T16:26:41.134Z,73.30
2018-05-13T16:29:09.585Z,75.20
2018-05-13T16:31:37.307Z,75.20
2018-05-13T16:34:04.960Z,75.90
2018-05-13T16:36:32.559Z,75.70
2018-05-13T16:39:00.765Z,78.60
2018-05-13T16:41:29.240Z,79.80
2018-05-13T16:43:57.657Z,80.30
2018-05-13T16:46:25.435Z,80.30
2018-05-13T16:48:52.969Z,79.70
2018-05-13T16:51:20.601Z,80.00
2018-05-13T16:53:48.244Z,80.60
2018-05-13T16:56:15.880Z,81.40
2018-05-13T16:58:43.542Z,82.00
2018-05-13T17:01:11.180Z,80.30
2018-05-13T17:03:38.787Z,79.60
2018-05-13T17:06:06.423Z,78.90
2018-05-13T17:08:34.038Z,78.70
2018-05-13T17:11:02.481Z,78.30
2018-05-13T17:13:30.351Z,78.20
2018-05-13T17:15:58.079Z,78.40
2018-05-13T17:18:26.499Z,78.40
2018-05-13T17:20:54.140Z,78.30
2018-05-13T17:23:23.375Z,78.70
2018-05-13T17:25:51.750Z,79.00
2018-05-13T17:28:19.379Z,78.90
2018-05-13T17:30:47.875Z,79.50
2018-05-13T17:33:15.535Z,79.70
2018-05-13T17:35:43.246Z,79.40
2018-05-13T17:38:10.845Z,80.40
2018-05-13T17:40:38.495Z,80.60
2018-05-13T17:43:06.091Z,80.20
2018-05-13T17:45:33.814Z,79.80
2018-05-13T17:48:01.473Z,80.30
2018-05-13T17:50:29.165Z,78.70
2018-05-13T17:52:56.796Z,79.20
2018-05-13T17:55:24.405Z,78.80
2018-05-13T17:57:52.774Z,78.70
2018-05-13T18:00:20.435Z,78.60
2018-05-13T18:02:48.816Z,77.70
2018-05-13T18:05:17.235Z,78.10
2018-05-13T18:07:44.860Z,78.10
2018-05-13T18:10:13.320Z,80.30
2018-05-13T18:12:40.976Z,80.20
2018-05-13T18:15:08.624Z,80.20
2018-05-13T18:17:36.302Z,79.90
2018-05-13T18:20:03.969Z,79.50
2018-05-13T18:22:32.583Z,80.30
2018-05-13T18:25:00.231Z,81.70
2018-05-13T18:27:28.614Z,82.20
2018-05-13T18:29:56.992Z,82.80
2018-05-13T18:32:25.355Z,83.00
2018-05-13T18:34:53.753Z,83.40
2018-05-13T18:37:21.472Z,83.40
2018-05-13T18:39:49.898Z,83.40
2018-05-13T18:42:17.483Z,83.40
2018-05-13T18:44:45.086Z,83.70
2018-05-13T18:47:12.718Z,83.50
2018-05-13T18:49:40.341Z,83.40
2018-05-13T18:52:07.960Z,83.00
2018-05-13T18:54:35.603Z,82.80
2018-05-13T18:57:03.276Z,82.20
2018-05-13T18:59:30.895Z,82.10
2018-05-13T19:01:58.553Z,82.10
2018-05-13T19:04:26.168Z,82.20
2018-05-13T19:06:53.809Z,82.60
2018-05-13T19:09:21.443Z,82.50
2018-05-13T19:11:49.072Z,82.80
2018-05-13T19:14:17.496Z,83.10
2018-05-13T19:16:45.126Z,83.00
2018-05-13T19:19:12.720Z,83.80
2018-05-13T19:21:40.341Z,83.10
2018-05-13T19:24:07.974Z,82.60
2018-05-13T19:26:35.629Z,82.50
2018-05-13T19:29:03.430Z,82.70
2018-05-13T19:31:31.130Z,83.30
2018-05-13T19:33:58.740Z,81.80
2018-05-13T19:36:26.409Z,83.00
2018-05-13T19:38:54.057Z,82.60
2018-05-13T19:41:22.496Z,83.40
2018-05-13T19:43:50.114Z,83.40
2018-05-13T19:46:17.722Z,83.30
2018-05-13T19:48:45.446Z,83.00
2018-05-13T19:51:13.059Z,83.40
2018-05-13T19:53:40.673Z,83.50
2018-05-13T19:56:08.300Z,83.50
2018-05-13T19:58:36.685Z,83.40
2018-05-13T20:01:05.100Z,82.80
2018-05-13T20:03:32.849Z,82.80
2018-05-13T20:06:00.403Z,83.00
2018-05-13T20:08:28.000Z,83.80
2018-05-13T20:10:55.620Z,84.10
2018-05-13T20:13:24.390Z,82.80
2018-05-13T20:15:52.778Z,82.80
2018-05-13T20:18:20.445Z,82.80
2018-05-13T20:20:48.090Z,82.90
2018-05-13T20:23:24.735Z,83.40
2018-05-13T20:25:52.384Z,83.70
2018-05-13T20:28:20.029Z,84.10
2018-05-13T20:30:47.674Z,84.20
2018-05-13T20:33:15.281Z,84.30
2018-05-13T20:35:42.890Z,84.00
2018-05-13T20:38:10.536Z,83.70
2018-05-13T20:40:38.168Z,83.90
2018-05-13T20:43:05.786Z,83.90
2018-05-13T20:45:33.409Z,83.60
2018-05-13T20:48:01.030Z,83.20
2018-05-13T20:50:28.685Z,83.70
2018-05-13T20:52:56.444Z,83.90
2018-05-13T20:55:24.106Z,84.10
2018-05-13T20:57:51.746Z,84.10
2018-05-13T21:00:19.415Z,84.30
2018-05-13T21:02:47.060Z,83.70
2018-05-13T21:05:14.729Z,84.70
2018-05-13T21:07:42.405Z,84.40
2018-05-13T21:10:10.042Z,84.20
2018-05-13T21:12:37.657Z,85.30
2018-05-13T21:15:05.295Z,85.10
2018-05-13T21:17:32.941Z,85.10
2018-05-13T21:20:00.558Z,85.00
2018-05-13T21:22:28.214Z,85.10
2018-05-13T21:24:56.607Z,85.30
2018-05-13T21:27:24.230Z,85.20
2018-05-13T21:29:51.892Z,84.90
2018-05-13T21:32:19.579Z,85.80
2018-05-13T21:34:47.981Z,86.50
2018-05-13T21:37:15.590Z,86.30
2018-05-13T21:39:43.208Z,86.90
2018-05-13T21:42:10.849Z,86.40
2018-05-13T21:44:38.460Z,86.40
2018-05-13T21:47:06.189Z,85.90
2018-05-13T21:49:33.750Z,86.50
2018-05-13T21:52:01.390Z,86.50
2018-05-13T21:54:29.081Z,85.90
2018-05-13T21:56:56.709Z,85.70
2018-05-13T21:59:24.333Z,85.60
2018-05-13T22:01:51.951Z,86.20
2018-05-13T22:04:19.592Z,85.70
2018-05-13T22:06:47.211Z,85.90
2018-05-13T22:09:14.958Z,85.80
2018-05-13T22:11:42.601Z,86.20
2018-05-13T22:14:10.266Z,85.80
2018-05-13T22:16:38.648Z,86.20
2018-05-13T22:19:06.271Z,86.20
2018-05-13T22:21:33.869Z,86.40
2018-05-13T22:24:01.471Z,85.50
2018-05-13T22:26:29.861Z,85.90
2018-05-13T22:28:58.232Z,86.00
2018-05-13T22:31:26.630Z,86.30
2018-05-13T22:33:54.214Z,86.30
2018-05-13T22:36:21.829Z,87.00
2018-05-13T22:38:50.230Z,86.00
2018-05-13T22:41:17.879Z,85.90
2018-05-13T22:43:46.268Z,85.20
2018-05-13T22:46:13.899Z,85.20
2018-05-13T22:48:42.274Z,85.00
2018-05-13T22:51:09.905Z,85.00
2018-05-13T22:53:37.495Z,86.80
2018-05-13T22:56:05.909Z,86.80
2018-05-13T22:58:33.522Z,86.80
2018-05-13T23:01:01.158Z,86.50
2018-05-13T23:03:28.787Z,87.20
2018-05-13T23:05:56.421Z,87.40
2018-05-13T23:08:24.831Z,87.00
2018-05-13T23:10:52.459Z,87.10
2018-05-13T23:13:20.918Z,87.80
2018-05-13T23:15:48.549Z,87.70
2018-05-13T23:18:16.195Z,87.80
2018-05-13T23:20:43.882Z,87.50
2018-05-13T23:23:11.513Z,87.50
2018-05-13T23:25:39.129Z,88.10
2018-05-13T23:28:06.739Z,87.90
2018-05-13T23:30:34.429Z,87.20
2018-05-13T23:33:02.831Z,87.10
2018-05-13T23:35:30.484Z,87.00
2018-05-13T23:37:59.182Z,89.30
2018-05-13T23:40:27.580Z,89.80
2018-05-13T23:42:55.240Z,89.70
2018-05-13T23:45:22.884Z,89.20
2018-05-13T23:47:50.481Z,89.00
2018-05-13T23:50:18.155Z,89.20
2018-05-13T23:52:45.792Z,89.40
2018-05-13T23:55:13.440Z,89.10
2018-05-13T23:57:41.847Z,89.10
